PWSweather.com
Personal Weather Stations
Station Observations
KAZTUCSO57
Countryside Manor, Tucson, AZ 85742

Countryside ManorTucson, AZ 85742

Lat: 32.3692, Lon: -111.066

Elevation: 2307

Station Type: Davis VP Pro+ 6163

http://frogville.us

Latest ConditionsUpdated 3:20:01 PM MST Monday, Nov 24, 2014
Currently Today's Max Today's Min Today's Average
Temperature 67.3°F19.6°C 69.3°F20.7°C 40.2°F4.6°C 53.4°F11.9°C
Dew Point 3.9°F-15.6°C 10.0°F-12.2°C -3.1°F-19.5°C 3.6°F-15.8°C
Winds 3.8 mph SW6.1 kmh SW 5.2 mph WSW8.4 kmh WSW - 1.3 mph 2.1 kmh
Wind Gusts 6.0 mph9.7 kmh 8.0 mph12.9 kmh - -
Humidity 8% 27% 6% 14%
Pressure 30.15 in1021.0 mb 30.21 in1023.0 mb 30.11 in1019.6 mb -
Hour Temp Dew Point Humidity Winds Wind Gusts Pressure Precip Precip Rate Daily Precip Total
03:20 PM 67.3°F19.6°C 3.9°F-15.6°C 8% 3.8 mph SW6.1 kmh SW 6.0 mph9.7 kmh 30.15 in1021.0 mb 0.00 in0.0 mm 0.00 in/hr0.0 mm/hr 0.00 in0.0 mm
03:10 PM 67.5°F19.7°C 4.0°F-15.6°C 8% 1.4 mph W2.3 kmh W 4.0 mph6.4 kmh 30.15 in1021.0 mb 0.00 in0.0 mm 0.00 in/hr0.0 mm/hr 0.00 in0.0 mm
03:00 PM 67.3°F19.6°C 3.9°F-15.6°C 8% 2.2 mph SW3.5 kmh SW 4.0 mph6.4 kmh 30.15 in1021.0 mb 0.00 in0.0 mm 0.00 in/hr0.0 mm/hr 0.00 in0.0 mm
02:50 PM 67.7°F19.8°C 1.3°F-17.1°C 7% 2.1 mph WSW3.4 kmh WSW 4.0 mph6.4 kmh 30.15 in1021.0 mb 0.00 in0.0 mm 0.00 in/hr0.0 mm/hr 0.00 in0.0 mm
02:40 PM 68.0°F20.0°C 1.5°F-16.9°C 7% 5.2 mph WSW8.4 kmh WSW 6.0 mph9.7 kmh 30.15 in1021.0 mb 0.00 in0.0 mm 0.00 in/hr0.0 mm/hr 0.00 in0.0 mm
02:30 PM 68.2°F20.1°C 1.7°F-16.8°C 7% 1.5 mph WSW2.4 kmh WSW 6.0 mph9.7 kmh 30.15 in1021.0 mb 0.00 in0.0 mm 0.00 in/hr0.0 mm/hr 0.00 in0.0 mm
02:20 PM 68.7°F20.4°C 2.0°F-16.7°C 7% 3.5 mph SW5.6 kmh SW 7.0 mph11.3 kmh 30.15 in1021.0 mb 0.00 in0.0 mm 0.00 in/hr0.0 mm/hr 0.00 in0.0 mm
02:10 PM 68.9°F20.5°C -1.1°F-18.4°C 6% 3.3 mph SSW5.3 kmh SSW 7.0 mph11.3 kmh 30.15 in1021.0 mb 0.00 in0.0 mm 0.00 in/hr0.0 mm/hr 0.00 in0.0 mm
02:00 PM 69.3°F20.7°C -0.8°F-18.2°C 6% 2.7 mph NW4.3 kmh NW 8.0 mph12.9 kmh 30.15 in1021.0 mb 0.00 in0.0 mm 0.00 in/hr0.0 mm/hr 0.00 in0.0 mm
01:50 PM 69.0°F20.6°C -1.1°F-18.4°C 6% 1.3 mph WNW2.1 kmh WNW 5.0 mph8.0 kmh 30.15 in1021.0 mb 0.00 in0.0 mm 0.00 in/hr0.0 mm/hr 0.00 in0.0 mm
01:40 PM 68.8°F20.4°C -1.2°F-18.4°C 6% 3.8 mph WSW6.1 kmh WSW 8.0 mph12.9 kmh 30.16 in1021.3 mb 0.00 in0.0 mm 0.00 in/hr0.0 mm/hr 0.00 in0.0 mm
01:30 PM 68.5°F20.3°C -1.4°F-18.6°C 6% 2.3 mph WSW3.7 kmh WSW 4.0 mph6.4 kmh 30.16 in1021.3 mb 0.00 in0.0 mm 0.00 in/hr0.0 mm/hr 0.00 in0.0 mm
01:20 PM 68.1°F20.1°C -1.7°F-18.7°C 6% 2.0 mph SW3.2 kmh SW 2.0 mph3.2 kmh 30.17 in1021.7 mb 0.00 in0.0 mm 0.00 in/hr0.0 mm/hr 0.00 in0.0 mm
01:10 PM 67.7°F19.8°C -2.0°F-18.9°C 6% 3.9 mph W6.3 kmh W 7.0 mph11.3 kmh 30.17 in1021.7 mb 0.00 in0.0 mm 0.00 in/hr0.0 mm/hr 0.00 in0.0 mm
01:00 PM 67.7°F19.8°C 1.3°F-17.1°C 7% 3.3 mph NW5.3 kmh NW 6.0 mph9.7 kmh 30.17 in1021.7 mb 0.00 in0.0 mm 0.00 in/hr0.0 mm/hr 0.00 in0.0 mm
12:50 PM 67.5°F19.7°C 1.1°F-17.2°C 7% 1.9 mph W3.1 kmh W 5.0 mph8.0 kmh 30.17 in1021.7 mb 0.00 in0.0 mm 0.00 in/hr0.0 mm/hr 0.00 in0.0 mm
12:40 PM 67.3°F19.6°C 1.0°F-17.2°C 7% 1.7 mph W2.7 kmh W 3.0 mph4.8 kmh 30.18 in1022.0 mb 0.00 in0.0 mm 0.00 in/hr0.0 mm/hr 0.00 in0.0 mm
12:30 PM 66.9°F19.4°C 0.7°F-17.4°C 7% 3.6 mph WSW5.8 kmh WSW 6.0 mph9.7 kmh 30.18 in1022.0 mb 0.00 in0.0 mm 0.00 in/hr0.0 mm/hr 0.00 in0.0 mm
12:20 PM 66.8°F19.3°C 0.6°F-17.4°C 7% 3.5 mph WSW5.6 kmh WSW 5.0 mph8.0 kmh 30.18 in1022.0 mb 0.00 in0.0 mm 0.00 in/hr0.0 mm/hr 0.00 in0.0 mm
12:10 PM 66.7°F19.3°C 3.4°F-15.9°C 8% 3.3 mph WSW5.3 kmh WSW 6.0 mph9.7 kmh 30.18 in1022.0 mb 0.00 in0.0 mm 0.00 in/hr0.0 mm/hr 0.00 in0.0 mm
12:00 PM 66.5°F19.2°C 3.3°F-15.9°C 8% 1.7 mph W2.7 kmh W 5.0 mph8.0 kmh 30.18 in1022.0 mb 0.00 in0.0 mm 0.00 in/hr0.0 mm/hr 0.00 in0.0 mm
11:50 AM 65.8°F18.8°C 5.3°F-14.8°C 9% 2.2 mph SW3.5 kmh SW 7.0 mph11.3 kmh 30.19 in1022.4 mb 0.00 in0.0 mm 0.00 in/hr0.0 mm/hr 0.00 in0.0 mm
11:40 AM 65.0°F18.3°C 7.0°F-13.9°C 10% 1.9 mph W3.1 kmh W 3.0 mph4.8 kmh 30.20 in1022.7 mb 0.00 in0.0 mm 0.00 in/hr0.0 mm/hr 0.00 in0.0 mm
11:30 AM 64.1°F17.8°C 8.5°F-13.1°C 11% 1.9 mph WNW3.1 kmh WNW 3.0 mph4.8 kmh 30.20 in1022.7 mb 0.00 in0.0 mm 0.00 in/hr0.0 mm/hr 0.00 in0.0 mm
11:20 AM 63.2°F17.3°C 5.6°F-14.7°C 10% 2.1 mph WNW3.4 kmh WNW 3.0 mph4.8 kmh 30.20 in1022.7 mb 0.00 in0.0 mm 0.00 in/hr0.0 mm/hr 0.00 in0.0 mm
11:10 AM 61.7°F16.5°C 6.5°F-14.2°C 11% 0.1 mph SSW0.2 kmh SSW 1.0 mph1.6 kmh 30.21 in1023.0 mb 0.00 in0.0 mm 0.00 in/hr0.0 mm/hr 0.00 in0.0 mm
11:00 AM 60.6°F15.9°C 5.7°F-14.6°C 11% 0.7 mph SW1.1 kmh SW 1.0 mph1.6 kmh 30.21 in1023.0 mb 0.00 in0.0 mm 0.00 in/hr0.0 mm/hr 0.00 in0.0 mm
10:50 AM 59.3°F15.2°C 4.7°F-15.2°C 11% 0.1 mph SW0.2 kmh SW 1.0 mph1.6 kmh 30.21 in1023.0 mb 0.00 in0.0 mm 0.00 in/hr0.0 mm/hr 0.00 in0.0 mm
10:40 AM 58.4°F14.7°C 7.6°F-13.6°C 13% 0.8 mph E1.3 kmh E 2.0 mph3.2 kmh 30.20 in1022.7 mb 0.00 in0.0 mm 0.00 in/hr0.0 mm/hr 0.00 in0.0 mm
10:30 AM 56.8°F13.8°C 8.0°F-13.3°C 14% 0.5 mph SE0.8 kmh SE 2.0 mph3.2 kmh 30.20 in1022.7 mb 0.00 in0.0 mm 0.00 in/hr0.0 mm/hr 0.00 in0.0 mm
10:20 AM 55.7°F13.2°C 8.7°F-12.9°C 15% 0.3 mph S0.5 kmh S 1.0 mph1.6 kmh 30.21 in1023.0 mb 0.00 in0.0 mm 0.00 in/hr0.0 mm/hr 0.00 in0.0 mm
10:10 AM 55.0°F12.8°C 9.5°F-12.5°C 16% 0.4 mph E0.6 kmh E 1.0 mph1.6 kmh 30.21 in1023.0 mb 0.00 in0.0 mm 0.00 in/hr0.0 mm/hr 0.00 in0.0 mm
10:00 AM 54.2°F12.3°C 8.9°F-12.8°C 16% 1.0 mph SE1.6 kmh SE 2.0 mph3.2 kmh 30.21 in1023.0 mb 0.00 in0.0 mm 0.00 in/hr0.0 mm/hr 0.00 in0.0 mm
09:50 AM 53.3°F11.8°C 8.2°F-13.2°C 16% 1.3 mph SE2.1 kmh SE 3.0 mph4.8 kmh 30.21 in1023.0 mb 0.00 in0.0 mm 0.00 in/hr0.0 mm/hr 0.00 in0.0 mm
09:40 AM 52.4°F11.3°C 10.0°F-12.2°C 18% Calm Calm -- 30.21 in1023.0 mb 0.00 in0.0 mm 0.00 in/hr0.0 mm/hr 0.00 in0.0 mm
09:30 AM 51.5°F10.8°C 8.0°F-13.3°C 17% 0.1 mph ESE0.2 kmh ESE 1.0 mph1.6 kmh 30.21 in1023.0 mb 0.00 in0.0 mm 0.00 in/hr0.0 mm/hr 0.00 in0.0 mm
09:20 AM 50.8°F10.4°C 7.4°F-13.7°C 17% 0.4 mph SE0.6 kmh SE 2.0 mph3.2 kmh 30.20 in1022.7 mb 0.00 in0.0 mm 0.00 in/hr0.0 mm/hr 0.00 in0.0 mm
09:10 AM 49.5°F9.7°C 8.9°F-12.8°C 19% 0.6 mph E1.0 kmh E 2.0 mph3.2 kmh 30.21 in1023.0 mb 0.00 in0.0 mm 0.00 in/hr0.0 mm/hr 0.00 in0.0 mm
09:00 AM 48.6°F9.2°C 9.3°F-12.6°C 20% 0.5 mph E0.8 kmh E 1.0 mph1.6 kmh 30.21 in1023.0 mb 0.00 in0.0 mm 0.00 in/hr0.0 mm/hr 0.00 in0.0 mm
08:50 AM 47.7°F8.7°C 7.4°F-13.7°C 19% 0.7 mph ESE1.1 kmh ESE 2.0 mph3.2 kmh 30.21 in1023.0 mb 0.00 in0.0 mm 0.00 in/hr0.0 mm/hr 0.00 in0.0 mm
08:40 AM 46.5°F8.1°C 8.6°F-13.0°C 21% 1.3 mph E2.1 kmh E 2.0 mph3.2 kmh 30.20 in1022.7 mb 0.00 in0.0 mm 0.00 in/hr0.0 mm/hr 0.00 in0.0 mm
08:30 AM 45.3°F7.4°C 8.6°F-13.0°C 22% 0.5 mph ENE0.8 kmh ENE 1.0 mph1.6 kmh 30.19 in1022.4 mb 0.00 in0.0 mm 0.00 in/hr0.0 mm/hr 0.00 in0.0 mm
08:20 AM 43.7°F6.5°C 9.2°F-12.7°C 24% 0.8 mph E1.3 kmh E 3.0 mph4.8 kmh 30.19 in1022.4 mb 0.00 in0.0 mm 0.00 in/hr0.0 mm/hr 0.00 in0.0 mm
08:10 AM 42.1°F5.6°C 9.6°F-12.4°C 26% 0.1 mph NE0.2 kmh NE 2.0 mph3.2 kmh 30.19 in1022.4 mb 0.00 in0.0 mm 0.00 in/hr0.0 mm/hr 0.00 in0.0 mm
08:00 AM 40.8°F4.9°C 9.4°F-12.6°C 27% 0.6 mph ENE1.0 kmh ENE 2.0 mph3.2 kmh 30.18 in1022.0 mb 0.00 in0.0 mm 0.00 in/hr0.0 mm/hr 0.00 in0.0 mm
07:50 AM 40.3°F4.6°C 8.9°F-12.8°C 27% Calm Calm 1.0 mph1.6 kmh 30.18 in1022.0 mb 0.00 in0.0 mm 0.00 in/hr0.0 mm/hr 0.00 in0.0 mm
07:40 AM 40.2°F4.6°C 8.0°F-13.3°C 26% 0.8 mph NE1.3 kmh NE 1.0 mph1.6 kmh 30.18 in1022.0 mb 0.00 in0.0 mm 0.00 in/hr0.0 mm/hr 0.00 in0.0 mm
07:30 AM 40.2°F4.6°C 7.1°F-13.8°C 25% 1.0 mph ENE1.6 kmh ENE 3.0 mph4.8 kmh 30.17 in1021.7 mb 0.00 in0.0 mm 0.00 in/hr0.0 mm/hr 0.00 in0.0 mm
07:20 AM 40.3°F4.6°C 7.2°F-13.8°C 25% 0.6 mph E1.0 kmh E 3.0 mph4.8 kmh 30.17 in1021.7 mb 0.00 in0.0 mm 0.00 in/hr0.0 mm/hr 0.00 in0.0 mm
07:10 AM 40.4°F4.7°C 7.3°F-13.7°C 25% 0.8 mph SE1.3 kmh SE 1.0 mph1.6 kmh 30.16 in1021.3 mb 0.00 in0.0 mm 0.00 in/hr0.0 mm/hr 0.00 in0.0 mm
07:00 AM 40.6°F4.8°C 7.4°F-13.7°C 25% 0.3 mph ENE0.5 kmh ENE 1.0 mph1.6 kmh 30.16 in1021.3 mb 0.00 in0.0 mm 0.00 in/hr0.0 mm/hr 0.00 in0.0 mm
06:50 AM 40.9°F4.9°C 5.9°F-14.5°C 23% 0.3 mph E0.5 kmh E 2.0 mph3.2 kmh 30.16 in1021.3 mb 0.00 in0.0 mm 0.00 in/hr0.0 mm/hr 0.00 in0.0 mm
06:40 AM 41.4°F5.2°C 5.3°F-14.8°C 22% 0.4 mph ESE0.6 kmh ESE 2.0 mph3.2 kmh 30.15 in1021.0 mb 0.00 in0.0 mm 0.00 in/hr0.0 mm/hr 0.00 in0.0 mm
06:30 AM 42.5°F5.8°C 6.2°F-14.3°C 22% 0.2 mph E0.3 kmh E 1.0 mph1.6 kmh 30.14 in1020.7 mb 0.00 in0.0 mm 0.00 in/hr0.0 mm/hr 0.00 in0.0 mm
06:20 AM 42.8°F6.0°C 6.5°F-14.2°C 22% Calm Calm 1.0 mph1.6 kmh 30.14 in1020.7 mb 0.00 in0.0 mm 0.00 in/hr0.0 mm/hr 0.00 in0.0 mm
06:10 AM 43.6°F6.4°C 6.2°F-14.3°C 21% Calm Calm -- 30.14 in1020.7 mb 0.00 in0.0 mm 0.00 in/hr0.0 mm/hr 0.00 in0.0 mm
06:00 AM 44.2°F6.8°C 6.7°F-14.1°C 21% Calm Calm -- 30.14 in1020.7 mb 0.00 in0.0 mm 0.00 in/hr0.0 mm/hr 0.00 in0.0 mm
05:50 AM 44.7°F7.1°C 6.0°F-14.4°C 20% Calm Calm 1.0 mph1.6 kmh 30.14 in1020.7 mb 0.00 in0.0 mm 0.00 in/hr0.0 mm/hr 0.00 in0.0 mm
05:40 AM 45.0°F7.2°C 5.1°F-14.9°C 19% Calm Calm -- 30.13 in1020.3 mb 0.00 in0.0 mm 0.00 in/hr0.0 mm/hr 0.00 in0.0 mm
05:30 AM 45.4°F7.4°C 5.5°F-14.7°C 19% 0.1 mph E0.2 kmh E 1.0 mph1.6 kmh 30.13 in1020.3 mb 0.00 in0.0 mm 0.00 in/hr0.0 mm/hr 0.00 in0.0 mm
05:20 AM 46.0°F7.8°C 4.8°F-15.1°C 18% 0.6 mph ESE1.0 kmh ESE 1.0 mph1.6 kmh 30.13 in1020.3 mb 0.00 in0.0 mm 0.00 in/hr0.0 mm/hr 0.00 in0.0 mm
05:10 AM 45.9°F7.7°C 2.2°F-16.6°C 16% 1.1 mph ESE1.8 kmh ESE 5.0 mph8.0 kmh 30.13 in1020.3 mb 0.00 in0.0 mm 0.00 in/hr0.0 mm/hr 0.00 in0.0 mm
05:00 AM 46.7°F8.2°C 6.5°F-14.2°C 19% 0.7 mph SSE1.1 kmh SSE 2.0 mph3.2 kmh 30.13 in1020.3 mb 0.00 in0.0 mm 0.00 in/hr0.0 mm/hr 0.00 in0.0 mm
04:50 AM 48.2°F9.0°C 6.6°F-14.1°C 18% 0.2 mph S0.3 kmh S 1.0 mph1.6 kmh 30.12 in1020.0 mb 0.00 in0.0 mm 0.00 in/hr0.0 mm/hr 0.00 in0.0 mm
04:40 AM 48.8°F9.3°C 1.6°F-16.9°C 14% 1.5 mph SE2.4 kmh SE 3.0 mph4.8 kmh 30.12 in1020.0 mb 0.00 in0.0 mm 0.00 in/hr0.0 mm/hr 0.00 in0.0 mm
04:30 AM 48.9°F9.4°C 0.1°F-17.7°C 13% 1.0 mph ESE1.6 kmh ESE 3.0 mph4.8 kmh 30.12 in1020.0 mb 0.00 in0.0 mm 0.00 in/hr0.0 mm/hr 0.00 in0.0 mm
04:20 AM 48.7°F9.3°C 1.5°F-16.9°C 14% 1.3 mph ENE2.1 kmh ENE 3.0 mph4.8 kmh 30.11 in1019.6 mb 0.00 in0.0 mm 0.00 in/hr0.0 mm/hr 0.00 in0.0 mm
04:10 AM 48.9°F9.4°C 1.7°F-16.8°C 14% 1.6 mph NE2.6 kmh NE 2.0 mph3.2 kmh 30.11 in1019.6 mb 0.00 in0.0 mm 0.00 in/hr0.0 mm/hr 0.00 in0.0 mm
04:00 AM 47.9°F8.8°C 0.9°F-17.3°C 14% 2.1 mph NNE3.4 kmh NNE 3.0 mph4.8 kmh 30.11 in1019.6 mb 0.00 in0.0 mm 0.00 in/hr0.0 mm/hr 0.00 in0.0 mm
03:50 AM 45.9°F7.7°C 2.2°F-16.6°C 16% 1.8 mph NE2.9 kmh NE 4.0 mph6.4 kmh 30.12 in1020.0 mb 0.00 in0.0 mm 0.00 in/hr0.0 mm/hr 0.00 in0.0 mm
03:40 AM 46.3°F7.9°C 2.4°F-16.4°C 16% 0.4 mph E0.6 kmh E 1.0 mph1.6 kmh 30.12 in1020.0 mb 0.00 in0.0 mm 0.00 in/hr0.0 mm/hr 0.00 in0.0 mm
03:30 AM 46.9°F8.3°C 1.6°F-16.9°C 15% 0.8 mph SE1.3 kmh SE 2.0 mph3.2 kmh 30.14 in1020.7 mb 0.00 in0.0 mm 0.00 in/hr0.0 mm/hr 0.00 in0.0 mm
03:20 AM 47.4°F8.6°C 0.5°F-17.5°C 14% 0.1 mph ESE0.2 kmh ESE 1.0 mph1.6 kmh 30.13 in1020.3 mb 0.00 in0.0 mm 0.00 in/hr0.0 mm/hr 0.00 in0.0 mm
03:10 AM 48.1°F8.9°C 1.0°F-17.2°C 14% 0.4 mph NE0.6 kmh NE 2.0 mph3.2 kmh 30.13 in1020.3 mb 0.00 in0.0 mm 0.00 in/hr0.0 mm/hr 0.00 in0.0 mm
03:00 AM 48.3°F9.1°C 1.2°F-17.1°C 14% 0.2 mph N0.3 kmh N 1.0 mph1.6 kmh 30.13 in1020.3 mb 0.00 in0.0 mm 0.00 in/hr0.0 mm/hr 0.00 in0.0 mm
02:50 AM 48.4°F9.1°C -0.3°F-17.9°C 13% 0.9 mph N1.4 kmh N 2.0 mph3.2 kmh 30.13 in1020.3 mb 0.00 in0.0 mm 0.00 in/hr0.0 mm/hr 0.00 in0.0 mm
02:40 AM 48.3°F9.1°C -0.4°F-18.0°C 13% 1.8 mph N2.9 kmh N 3.0 mph4.8 kmh 30.13 in1020.3 mb 0.00 in0.0 mm 0.00 in/hr0.0 mm/hr 0.00 in0.0 mm
02:30 AM 48.1°F8.9°C -2.2°F-19.0°C 12% 1.1 mph N1.8 kmh N 2.0 mph3.2 kmh 30.14 in1020.7 mb 0.00 in0.0 mm 0.00 in/hr0.0 mm/hr 0.00 in0.0 mm
02:20 AM 47.7°F8.7°C 0.7°F-17.4°C 14% 2.3 mph NNW3.7 kmh NNW 6.0 mph9.7 kmh 30.14 in1020.7 mb 0.00 in0.0 mm 0.00 in/hr0.0 mm/hr 0.00 in0.0 mm
02:10 AM 47.8°F8.8°C 2.3°F-16.5°C 15% 0.9 mph NNE1.4 kmh NNE 1.0 mph1.6 kmh 30.13 in1020.3 mb 0.00 in0.0 mm 0.00 in/hr0.0 mm/hr 0.00 in0.0 mm
02:00 AM 47.9°F8.8°C 2.4°F-16.4°C 15% 1.2 mph NE1.9 kmh NE 2.0 mph3.2 kmh 30.12 in1020.0 mb 0.00 in0.0 mm 0.00 in/hr0.0 mm/hr 0.00 in0.0 mm
01:50 AM 48.1°F8.9°C 1.0°F-17.2°C 14% 1.9 mph N3.1 kmh N 5.0 mph8.0 kmh 30.12 in1020.0 mb 0.00 in0.0 mm 0.00 in/hr0.0 mm/hr 0.00 in0.0 mm
01:40 AM 49.1°F9.5°C 0.2°F-17.7°C 13% 0.2 mph SSW0.3 kmh SSW -- 30.12 in1020.0 mb 0.00 in0.0 mm 0.00 in/hr0.0 mm/hr 0.00 in0.0 mm
01:30 AM 50.4°F10.2°C 1.3°F-17.1°C 13% Calm Calm -- 30.12 in1020.0 mb 0.00 in0.0 mm 0.00 in/hr0.0 mm/hr 0.00 in0.0 mm
01:20 AM 51.7°F10.9°C 0.6°F-17.4°C 12% Calm Calm -- 30.12 in1020.0 mb 0.00 in0.0 mm 0.00 in/hr0.0 mm/hr 0.00 in0.0 mm
01:10 AM 52.2°F11.2°C -0.8°F-18.2°C 11% Calm Calm -- 30.12 in1020.0 mb 0.00 in0.0 mm 0.00 in/hr0.0 mm/hr 0.00 in0.0 mm
01:00 AM 52.3°F11.3°C -2.8°F-19.3°C 10% 1.3 mph SSW2.1 kmh SSW 2.0 mph3.2 kmh 30.11 in1019.6 mb 0.00 in0.0 mm 0.00 in/hr0.0 mm/hr 0.00 in0.0 mm
12:50 AM 52.1°F11.2°C -2.9°F-19.4°C 10% 3.5 mph NNE5.6 kmh NNE 7.0 mph11.3 kmh 30.11 in1019.6 mb 0.00 in0.0 mm 0.00 in/hr0.0 mm/hr 0.00 in0.0 mm
12:40 AM 52.0°F11.1°C -3.0°F-19.4°C 10% 1.9 mph NNE3.1 kmh NNE 4.0 mph6.4 kmh 30.11 in1019.6 mb 0.00 in0.0 mm 0.00 in/hr0.0 mm/hr 0.00 in0.0 mm
12:30 AM 51.9°F11.1°C -3.1°F-19.5°C 10% 2.0 mph NE3.2 kmh NE 4.0 mph6.4 kmh 30.11 in1019.6 mb 0.00 in0.0 mm 0.00 in/hr0.0 mm/hr 0.00 in0.0 mm
12:20 AM 51.7°F10.9°C -1.2°F-18.4°C 11% 2.5 mph NNE4.0 kmh NNE 5.0 mph8.0 kmh 30.11 in1019.6 mb 0.00 in0.0 mm 0.00 in/hr0.0 mm/hr 0.00 in0.0 mm
12:10 AM 51.7°F10.9°C -1.2°F-18.4°C 11% 1.9 mph NNE3.1 kmh NNE 3.0 mph4.8 kmh 30.12 in1020.0 mb 0.00 in0.0 mm 0.00 in/hr0.0 mm/hr 0.00 in0.0 mm
12:00 AM 51.8°F11.0°C -1.2°F-18.4°C 11% 2.3 mph NE3.7 kmh NE 5.0 mph8.0 kmh 30.12 in1020.0 mb 0.00 in0.0 mm 0.00 in/hr0.0 mm/hr 0.00 in0.0 mm